Time;durP1;ratioP1;P1;durP2;ratioP2;P2;SDS_P1;SDS_P2;PMS_P1;PMS_P2;Temp;Humidity;BMP_temperature;BMP_pressure;BME280_temperature;BME280_humidity;BME280_pressure;Samples;Min_cycle;Max_cycle;Signal;HPM_P1;HPM_P2
2022/07/21 00:00:00;;;;;;;8.45;3.58;;;;;;;21.31;63.98;101790.91;4996098;28;97805;-35
2022/07/21 00:02:25;;;;;;;7.55;3.72;;;;;;;21.32;64.23;101790.78;4994498;28;96682;-35
2022/07/21 00:04:51;;;;;;;7.03;4.15;;;;;;;21.28;64.61;101782.94;4995646;28;104352;-35
2022/07/21 00:07:16;;;;;;;9.10;3.63;;;;;;;21.28;65.01;101785.69;4994407;28;101340;-35
2022/07/21 00:09:41;;;;;;;10.60;3.83;;;;;;;21.27;64.19;101792.22;4995320;28;115856;-35
2022/07/21 00:12:07;;;;;;;8.27;3.92;;;;;;;21.23;65.19;101794.38;4996050;28;96729;-35
2022/07/21 00:14:32;;;;;;;6.43;3.67;;;;;;;21.12;65.73;101784.34;4995936;28;96899;-35
2022/07/21 00:16:58;;;;;;;7.47;4.65;;;;;;;21.20;64.85;101790.03;4995709;28;97730;-35
2022/07/21 00:19:23;;;;;;;7.28;3.90;;;;;;;21.23;64.43;101786.09;4995901;28;97980;-35
2022/07/21 00:21:48;;;;;;;6.15;3.58;;;;;;;21.28;64.72;101778.28;4995851;28;96493;-35
2022/07/21 00:24:14;;;;;;;7.80;4.05;;;;;;;21.33;64.24;101781.50;4996428;28;96804;-35
2022/07/21 00:26:39;;;;;;;6.75;3.88;;;;;;;21.30;65.23;101775.41;4994561;28;114798;-35
2022/07/21 00:29:05;;;;;;;6.45;3.70;;;;;;;21.35;64.62;101787.72;4995440;28;99171;-35
2022/07/21 00:31:30;;;;;;;7.65;4.15;;;;;;;21.40;64.29;101777.22;4995587;28;96566;-35
2022/07/21 00:33:56;;;;;;;8.45;4.35;;;;;;;21.38;64.39;101775.53;4995505;28;97013;-35
2022/07/21 00:36:22;;;;;;;10.70;4.20;;;;;;;21.21;64.68;101771.59;4995472;28;97848;-35
2022/07/21 00:38:47;;;;;;;6.10;3.88;;;;;;;21.22;65.46;101773.34;4993623;28;100948;-35
2022/07/21 00:41:13;;;;;;;8.73;4.38;;;;;;;21.24;64.90;101773.19;4994480;28;96571;-35
2022/07/21 00:43:39;;;;;;;10.82;4.35;;;;;;;21.29;64.56;101773.66;4996214;28;96760;-35
2022/07/21 00:46:04;;;;;;;9.50;4.63;;;;;;;21.28;64.76;101767.25;4995399;28;97988;-35
2022/07/21 00:48:29;;;;;;;7.38;3.92;;;;;;;21.28;65.58;101766.41;4995059;28;97414;-35
2022/07/21 00:50:55;;;;;;;8.23;4.78;;;;;;;21.27;65.48;101781.19;4995108;28;96473;-35
2022/07/21 00:53:20;;;;;;;6.75;4.07;;;;;;;21.19;65.03;101770.91;4994433;28;98152;-35
2022/07/21 00:55:48;;;;;;;6.95;3.78;;;;;;;21.23;65.08;101776.97;4995020;28;98798;-35
2022/07/21 00:58:14;;;;;;;9.73;4.75;;;;;;;21.16;65.95;101777.53;4993650;28;101314;-35
2022/07/21 01:00:40;;;;;;;10.13;4.40;;;;;;;21.15;65.37;101777.69;4995423;28;96566;-35
2022/07/21 01:03:05;;;;;;;10.75;4.68;;;;;;;21.19;66.72;101784.66;4993535;28;96578;-35
2022/07/21 01:05:31;;;;;;;8.20;4.35;;;;;;;21.20;65.63;101780.88;4994947;28;99385;-35
2022/07/21 01:08:02;;;;;;;7.60;4.65;;;;;;;21.19;66.39;101774.50;4995243;28;98955;-35
2022/07/21 01:10:27;;;;;;;8.00;4.55;;;;;;;21.19;66.11;101779.16;4993843;28;96788;-35
2022/07/21 01:12:53;;;;;;;7.80;4.43;;;;;;;21.09;66.44;101779.09;4995391;28;96790;-35
2022/07/21 01:15:20;;;;;;;8.70;4.30;;;;;;;21.15;65.81;101780.44;4994256;28;98804;-35
2022/07/21 01:17:46;;;;;;;9.05;4.60;;;;;;;21.13;65.68;101772.31;4993304;28;100694;-35
2022/07/21 01:20:14;;;;;;;9.02;4.38;;;;;;;21.17;66.30;101765.50;4993759;28;96596;-35
2022/07/21 01:22:42;;;;;;;7.30;4.18;;;;;;;21.14;65.63;101760.28;4995173;28;96728;-35
2022/07/21 01:25:08;;;;;;;9.40;4.60;;;;;;;21.19;66.86;101762.63;4994786;28;98374;-35
2022/07/21 01:27:33;;;;;;;8.57;4.65;;;;;;;21.17;65.61;101762.75;4994732;28;97950;-35
2022/07/21 01:29:59;;;;;;;7.40;4.65;;;;;;;21.21;65.94;101766.09;4995099;28;96685;-35
2022/07/21 01:32:25;;;;;;;7.65;4.65;;;;;;;21.16;66.67;101768.41;4995076;28;96688;-35
2022/07/21 01:34:50;;;;;;;9.85;4.93;;;;;;;21.20;65.99;101753.34;4994710;28;97346;-35
2022/07/21 01:37:21;;;;;;;9.00;4.35;;;;;;;21.04;66.12;101742.84;4994419;28;99193;-35
2022/07/21 01:42:34;;;;;;;8.65;4.78;;;;;;;20.90;67.10;101760.63;4995090;28;96473;-35
2022/07/21 01:45:01;;;;;;;10.20;4.88;;;;;;;20.84;66.73;101755.69;4994483;28;97859;-35
2022/07/21 01:47:26;;;;;;;8.00;4.50;;;;;;;20.86;67.37;101758.31;4993090;28;100647;-35
2022/07/21 01:49:51;;;;;;;7.32;4.57;;;;;;;20.93;66.74;101754.88;4994476;28;96703;-35
2022/07/21 01:52:17;;;;;;;10.93;4.35;;;;;;;20.92;66.79;101735.72;4994698;28;96748;-35
2022/07/21 01:54:42;;;;;;;10.02;4.80;;;;;;;20.92;67.10;101744.84;4994022;28;107465;-35
2022/07/21 01:57:07;;;;;;;7.55;4.55;;;;;;;20.96;66.83;101748.19;4994401;28;97747;-36
2022/07/21 01:59:32;;;;;;;14.00;5.25;;;;;;;20.91;68.54;101737.59;4994474;28;96582;-35
2022/07/21 02:01:58;;;;;;;7.95;4.30;;;;;;;20.82;67.67;101734.81;4994695;28;96800;-35
2022/07/21 02:04:23;;;;;;;8.63;4.28;;;;;;;20.84;68.44;101733.66;4994690;28;99725;-35
2022/07/21 02:06:49;;;;;;;8.13;4.50;;;;;;;20.89;67.02;101739.63;4997814;28;97309;-35
2022/07/21 02:09:15;;;;;;;8.52;4.57;;;;;;;20.84;66.93;101736.41;4996664;28;96657;-35
2022/07/21 02:11:40;;;;;;;8.10;4.40;;;;;;;20.86;67.80;101739.91;4998084;28;96910;-35
2022/07/21 02:14:06;;;;;;;8.55;4.50;;;;;;;20.86;67.07;101750.91;4997229;28;99779;-35
2022/07/21 02:16:32;;;;;;;7.97;4.78;;;;;;;20.90;67.40;101752.38;4997760;28;97221;-35
2022/07/21 02:18:57;;;;;;;8.40;4.97;;;;;;;20.84;68.21;101746.56;4997960;28;96519;-35
2022/07/21 02:21:22;;;;;;;11.10;5.28;;;;;;;20.77;68.89;101746.25;4998272;28;96870;-35
2022/07/21 02:23:48;;;;;;;10.52;5.07;;;;;;;20.79;68.11;101745.09;4997426;28;98964;-35
2022/07/21 02:26:13;;;;;;;9.40;4.53;;;;;;;20.75;67.71;101740.88;4997472;28;97262;-35
2022/07/21 02:28:39;;;;;;;9.35;5.38;;;;;;;20.73;68.64;101731.00;4997053;28;96764;-35
2022/07/21 02:31:06;;;;;;;9.95;4.53;;;;;;;20.60;68.13;101734.00;4996202;28;96906;-35
2022/07/21 02:33:31;;;;;;;8.15;4.55;;;;;;;20.67;68.15;101729.69;4995857;28;100941;-35
2022/07/21 02:35:57;;;;;;;11.05;5.38;;;;;;;20.72;68.03;101721.88;4997455;28;97331;-35
2022/07/21 02:38:22;;;;;;;9.13;4.80;;;;;;;20.76;68.77;101725.22;4997261;28;96708;-35
2022/07/21 02:40:48;;;;;;;8.05;4.45;;;;;;;20.76;67.78;101720.59;4997770;28;96495;-35
2022/07/21 02:43:13;;;;;;;10.90;5.13;;;;;;;20.72;69.12;101723.75;4997202;28;97988;-35
2022/07/21 02:45:41;;;;;;;9.68;5.05;;;;;;;20.59;70.30;101718.47;4997678;28;103351;-35
2022/07/21 02:48:09;;;;;;;10.50;5.35;;;;;;;20.42;70.39;101708.97;4996158;28;96608;-35
2022/07/21 02:50:37;;;;;;;12.13;5.70;;;;;;;20.45;69.17;101718.81;4995991;28;96963;-35
2022/07/21 02:53:08;;;;;;;12.25;5.80;;;;;;;20.45;69.90;101724.31;4995067;28;100956;-35
2022/07/21 02:55:37;;;;;;;15.13;5.70;;;;;;;20.39;69.89;101719.38;4995317;28;100907;-35
2022/07/21 02:58:10;;;;;;;13.77;5.68;;;;;;;20.34;72.07;101719.78;4995486;28;96622;-35
2022/07/21 03:00:38;;;;;;;10.00;5.90;;;;;;;20.30;70.44;101719.19;4997347;28;96522;-35
2022/07/21 03:03:04;;;;;;;11.80;5.72;;;;;;;20.29;71.23;101709.19;4995288;28;100823;-35
2022/07/21 03:05:29;;;;;;;10.57;5.38;;;;;;;20.20;71.32;101712.75;4997126;28;97335;-35
2022/07/21 03:07:55;;;;;;;10.38;5.50;;;;;;;20.28;70.25;101715.69;4997308;28;96618;-35
2022/07/21 03:10:20;;;;;;;10.95;5.97;;;;;;;20.23;70.92;101703.34;4997376;28;96874;-35
2022/07/21 03:12:46;;;;;;;12.50;5.75;;;;;;;20.17;70.47;101703.94;4996945;28;97496;-35
2022/07/21 03:15:11;;;;;;;11.30;6.07;;;;;;;20.20;70.42;101707.25;4996655;28;97285;-35
2022/07/21 03:17:36;;;;;;;13.48;5.85;;;;;;;20.26;71.06;101722.34;4995438;28;104784;-35
2022/07/21 03:20:03;;;;;;;12.60;6.18;;;;;;;20.31;70.66;101723.69;4997236;28;96799;-35
2022/07/21 03:22:28;;;;;;;12.73;5.45;;;;;;;20.35;70.11;101713.28;4996558;28;97936;-35
2022/07/21 03:24:53;;;;;;;10.73;5.82;;;;;;;20.43;69.93;101715.34;4996540;28;97161;-35
2022/07/21 03:27:19;;;;;;;10.50;5.93;;;;;;;20.41;71.71;101709.97;4996587;28;101250;-35
2022/07/21 03:29:44;;;;;;;12.73;5.90;;;;;;;20.37;69.75;101703.00;4996650;28;96869;-35
2022/07/21 03:32:09;;;;;;;11.98;5.82;;;;;;;20.33;70.51;101704.28;4996381;28;99370;-34
2022/07/21 03:34:35;;;;;;;13.15;5.40;;;;;;;20.35;71.42;101707.75;4996841;28;100628;-35
2022/07/21 03:37:00;;;;;;;11.27;6.30;;;;;;;20.39;70.36;101719.38;4996646;28;96657;-35
2022/07/21 03:39:25;;;;;;;13.10;5.75;;;;;;;20.34;71.43;101706.91;4995343;28;96855;-35
2022/07/21 03:41:51;;;;;;;12.45;5.57;;;;;;;20.31;71.74;101709.06;4995255;28;117873;-35
2022/07/21 03:44:16;;;;;;;9.77;5.30;;;;;;;20.26;71.82;101714.09;4996109;28;99218;-35
2022/07/21 03:46:41;;;;;;;12.48;6.03;;;;;;;20.25;71.95;101721.47;4996793;28;97004;-35
2022/07/21 03:49:07;;;;;;;13.20;6.43;;;;;;;20.23;72.30;101722.63;4996592;28;96747;-35
2022/07/21 03:51:32;;;;;;;15.95;6.95;;;;;;;20.10;72.12;101720.09;4996183;28;97344;-35
2022/07/21 03:53:59;;;;;;;11.13;5.97;;;;;;;20.04;71.91;101723.38;4996058;28;97283;-35
2022/07/21 03:56:24;;;;;;;11.70;6.93;;;;;;;19.90;74.07;101717.22;4995031;28;96565;-35
2022/07/21 03:58:49;;;;;;;10.93;5.90;;;;;;;19.93;73.00;101719.69;4996670;28;96817;-35
2022/07/21 04:01:15;;;;;;;11.60;6.47;;;;;;;19.96;72.36;101714.94;4996032;28;102372;-35
2022/07/21 04:03:40;;;;;;;10.52;5.68;;;;;;;19.97;72.98;101723.03;4995666;28;106881;-35
2022/07/21 04:06:10;;;;;;;11.25;5.55;;;;;;;19.99;72.77;101725.66;4995585;28;96436;-35
2022/07/21 04:08:38;;;;;;;11.68;6.35;;;;;;;19.99;71.97;101726.53;4995792;28;96834;-35
2022/07/21 04:11:04;;;;;;;9.25;5.55;;;;;;;19.98;72.97;101727.53;4995962;28;97910;-35
2022/07/21 04:13:30;;;;;;;11.98;5.57;;;;;;;19.99;73.44;101728.41;4994307;28;100735;-35
2022/07/21 04:15:55;;;;;;;13.88;5.72;;;;;;;19.98;73.17;101723.94;4996297;28;96575;-35
2022/07/21 04:18:21;;;;;;;11.73;5.82;;;;;;;20.01;72.42;101732.75;4996121;28;96835;-35
2022/07/21 04:20:46;;;;;;;12.70;5.15;;;;;;;20.07;72.71;101728.59;4995802;28;98088;-35
2022/07/21 04:23:11;;;;;;;11.50;5.70;;;;;;;20.05;71.81;101730.63;4995890;28;97351;-34
2022/07/21 04:25:38;;;;;;;11.82;5.55;;;;;;;19.99;72.94;101729.28;4995961;28;97967;-35
2022/07/21 04:28:05;;;;;;;11.57;5.55;;;;;;;20.03;72.63;101736.25;4994620;28;96835;-35
2022/07/21 04:30:30;;;;;;;11.02;5.55;;;;;;;20.04;72.18;101732.50;4993640;28;99092;-35
2022/07/21 04:32:55;;;;;;;11.48;6.03;;;;;;;20.02;72.92;101729.03;4995471;28;97813;-35
2022/07/21 04:35:22;;;;;;;10.07;5.25;;;;;;;20.07;72.44;101732.25;4995725;28;96621;-35
2022/07/21 04:37:47;;;;;;;10.35;4.82;;;;;;;20.07;72.79;101732.25;4994372;28;96838;-35
2022/07/21 04:40:13;;;;;;;9.98;4.93;;;;;;;20.11;71.57;101732.81;4995145;28;97862;-35
2022/07/21 04:42:39;;;;;;;14.05;5.10;;;;;;;20.17;71.83;101737.81;4995536;28;97850;-35
2022/07/21 04:45:06;;;;;;;11.02;5.38;;;;;;;20.14;71.94;101730.69;4995627;28;96715;-35
2022/07/21 04:47:31;;;;;;;11.25;5.18;;;;;;;20.18;71.10;101722.16;4995809;28;96774;-35
2022/07/21 04:49:57;;;;;;;10.93;5.18;;;;;;;20.23;72.85;101728.13;4995248;28;97306;-35
2022/07/21 04:52:22;;;;;;;9.98;5.15;;;;;;;20.15;72.01;101732.41;4995098;28;97177;-35
2022/07/21 04:54:48;;;;;;;13.50;5.80;;;;;;;20.10;71.38;101723.72;4994715;28;96677;-35
2022/07/21 04:57:13;;;;;;;12.07;6.47;;;;;;;20.14;72.18;101732.53;4995315;28;96854;-35
2022/07/21 04:59:39;;;;;;;14.13;5.60;;;;;;;20.04;72.41;101732.50;4994917;28;99277;-35
2022/07/21 05:02:05;;;;;;;12.68;6.10;;;;;;;20.09;72.96;101737.59;4994882;28;103601;-35
2022/07/21 05:04:30;;;;;;;18.33;6.07;;;;;;;20.12;72.79;101734.59;4993682;28;96743;-35
2022/07/21 05:06:56;;;;;;;14.82;6.28;;;;;;;20.15;72.14;101740.69;4993678;28;97075;-35
2022/07/21 05:09:21;;;;;;;16.08;6.45;;;;;;;20.03;72.77;101729.88;4995139;28;98400;-35
2022/07/21 05:11:46;;;;;;;12.88;6.18;;;;;;;20.04;72.59;101737.13;4995368;28;98001;-35
2022/07/21 05:14:15;;;;;;;20.90;7.05;;;;;;;20.05;72.19;101731.50;4995244;28;96574;-35
2022/07/21 05:16:40;;;;;;;15.13;6.88;;;;;;;20.15;72.45;101739.81;4994976;28;96706;-35
2022/07/21 05:19:06;;;;;;;11.68;6.20;;;;;;;20.15;72.71;101728.81;4993131;28;99259;-35
2022/07/21 05:21:31;;;;;;;15.27;5.30;;;;;;;20.17;72.15;101735.06;4994439;28;99121;-35
2022/07/21 05:23:56;;;;;;;18.40;7.55;;;;;;;20.18;72.49;101728.53;4994819;28;96555;-35
2022/07/21 05:26:22;;;;;;;15.02;7.30;;;;;;;20.12;72.44;101723.59;4994874;28;101552;-35
2022/07/21 05:28:47;;;;;;;18.73;7.60;;;;;;;20.14;73.50;101721.53;4994424;28;99451;-35
2022/07/21 05:31:13;;;;;;;20.70;7.38;;;;;;;20.18;72.11;101724.91;4994625;28;97414;-35
2022/07/21 05:33:38;;;;;;;15.85;7.28;;;;;;;20.06;73.44;101721.34;4994942;28;96665;-35
2022/07/21 05:36:06;;;;;;;18.10;7.68;;;;;;;20.03;73.00;101721.63;4995154;28;96837;-35
2022/07/21 05:38:31;;;;;;;22.67;7.82;;;;;;;20.11;72.50;101724.56;4992437;28;99013;-34
2022/07/21 05:40:59;;;;;;;20.83;7.78;;;;;;;20.03;73.39;101730.75;4993138;28;100788;-35
2022/07/21 05:43:25;;;;;;;15.57;8.07;;;;;;;20.03;73.34;101725.25;4992941;28;96793;-35
2022/07/21 05:45:51;;;;;;;16.15;8.68;;;;;;;20.03;72.53;101730.75;4993298;28;96918;-35
2022/07/21 05:48:16;;;;;;;22.67;8.45;;;;;;;20.00;72.52;101716.38;4994760;28;97386;-35
2022/07/21 05:50:41;;;;;;;19.75;8.18;;;;;;;20.03;73.23;101728.00;4993527;28;111127;-35
2022/07/21 05:53:06;;;;;;;21.48;8.05;;;;;;;20.08;72.98;101722.09;4994559;28;96576;-35
2022/07/21 05:55:32;;;;;;;20.10;8.05;;;;;;;20.15;73.98;101726.06;4994559;28;96933;-35
2022/07/21 05:57:57;;;;;;;18.48;8.05;;;;;;;20.06;72.85;101722.22;4994325;28;97199;-35
2022/07/21 06:00:22;;;;;;;19.23;7.88;;;;;;;20.08;73.86;101727.59;4994498;28;99321;-35
2022/07/21 06:02:48;;;;;;;21.58;8.73;;;;;;;20.06;73.42;101730.47;4994544;28;96712;-35
2022/07/21 06:05:14;;;;;;;21.90;8.65;;;;;;;20.12;72.65;101729.09;4994095;28;96771;-35
2022/07/21 06:07:40;;;;;;;20.50;8.68;;;;;;;20.02;74.47;101728.13;4993987;28;97850;-35
2022/07/21 06:10:06;;;;;;;17.15;8.77;;;;;;;20.04;73.32;101729.75;4992541;28;99186;-35
2022/07/21 06:12:32;;;;;;;23.52;8.45;;;;;;;20.06;73.87;101730.47;4992936;28;96727;-35
2022/07/21 06:14:58;;;;;;;18.77;8.10;;;;;;;20.18;72.67;101745.03;4993154;28;96790;-35
2022/07/21 06:17:23;;;;;;;20.08;9.95;;;;;;;20.20;73.50;101743.03;4994184;28;97891;-35
2022/07/21 06:19:49;;;;;;;18.20;8.32;;;;;;;20.25;72.83;101743.47;4993758;28;99392;-35
2022/07/21 06:22:14;;;;;;;19.80;8.45;;;;;;;20.27;73.00;101737.84;4994484;28;96574;-35
2022/07/21 06:24:39;;;;;;;17.58;8.35;;;;;;;20.26;73.41;101737.00;4994834;28;96791;-35
2022/07/21 06:27:05;;;;;;;14.07;7.32;;;;;;;20.28;72.99;101748.72;4993743;28;99778;-35
2022/07/21 06:29:30;;;;;;;17.30;7.93;;;;;;;20.30;72.67;101732.06;4993690;28;99274;-35
2022/07/21 06:31:56;;;;;;;19.33;8.25;;;;;;;20.33;72.94;101751.94;4993749;28;96658;-35
2022/07/21 06:34:21;;;;;;;18.63;8.25;;;;;;;20.21;73.86;101739.25;4994056;28;96822;-35
2022/07/21 06:36:46;;;;;;;16.60;7.90;;;;;;;20.19;73.59;101746.78;4993490;28;102557;-35
2022/07/21 06:39:12;;;;;;;18.35;8.50;;;;;;;20.13;72.71;101745.44;4993644;28;99033;-35
2022/07/21 06:41:39;;;;;;;20.13;7.95;;;;;;;20.17;73.66;101746.06;4993850;28;96535;-35
2022/07/21 06:44:05;;;;;;;20.02;7.70;;;;;;;20.12;73.18;101742.84;4992527;28;96814;-35
2022/07/21 06:46:34;;;;;;;17.73;7.75;;;;;;;20.14;73.23;101736.19;4992148;28;101495;-35
2022/07/21 06:49:00;;;;;;;16.83;7.05;;;;;;;20.25;72.99;101749.00;4993784;28;99435;-35
2022/07/21 06:51:25;;;;;;;18.30;7.03;;;;;;;20.22;73.31;101748.41;4993805;28;96540;-35
2022/07/21 06:53:50;;;;;;;19.63;7.10;;;;;;;20.29;72.59;101755.09;4997528;28;96829;-35
2022/07/21 06:56:20;;;;;;;14.85;6.80;;;;;;;20.30;73.39;101757.69;4996837;28;97421;-35
2022/07/21 06:58:45;;;;;;;15.27;6.32;;;;;;;20.22;73.53;101754.78;4995301;28;101040;-35
2022/07/21 07:01:10;;;;;;;12.52;5.05;;;;;;;20.14;74.48;101760.06;4996535;28;96574;-35
2022/07/21 07:03:37;;;;;;;11.43;4.63;;;;;;;20.04;74.57;101764.63;4995431;28;96955;-35
2022/07/21 07:06:04;;;;;;;9.05;4.22;;;;;;;20.01;74.87;101770.41;4995283;28;101238;-35
2022/07/21 07:08:30;;;;;;;8.63;3.83;;;;;;;19.99;73.75;101775.16;4995301;28;100646;-35
2022/07/21 07:10:55;;;;;;;6.35;3.47;;;;;;;20.01;73.60;101784.16;4996913;28;96749;-35
2022/07/21 07:13:20;;;;;;;6.75;3.30;;;;;;;19.90;74.17;101774.97;4997147;28;101617;-35
2022/07/21 07:15:46;;;;;;;7.28;3.45;;;;;;;19.97;74.16;101779.91;4996478;28;100230;-35
2022/07/21 07:18:11;;;;;;;5.22;2.88;;;;;;;19.91;74.79;101784.94;4996698;28;97269;-35
2022/07/21 07:20:37;;;;;;;4.97;2.78;;;;;;;19.88;74.50;101781.59;4996509;28;96552;-35
2022/07/21 07:23:03;;;;;;;9.80;2.92;;;;;;;19.89;74.11;101792.47;4996747;28;96831;-35
2022/07/21 07:25:28;;;;;;;6.55;3.30;;;;;;;19.96;74.02;101786.44;4995242;28;100916;-34
2022/07/21 07:27:56;;;;;;;7.97;3.50;;;;;;;19.98;74.56;101799.06;4996696;28;97937;-35
2022/07/21 07:30:21;;;;;;;5.80;3.30;;;;;;;19.90;74.62;101796.97;4995315;28;96670;-35
2022/07/21 07:32:49;;;;;;;13.15;3.67;;;;;;;19.83;74.38;101792.09;4996947;28;96806;-35
2022/07/21 07:35:16;;;;;;;8.68;3.75;;;;;;;19.86;74.31;101797.38;4994923;28;100609;-35
2022/07/21 07:37:44;;;;;;;6.88;3.78;;;;;;;19.80;74.54;101789.63;4995523;28;100745;-35
2022/07/21 07:40:14;;;;;;;10.65;4.15;;;;;;;19.78;74.84;101791.63;4994820;28;96802;-35
2022/07/21 07:42:39;;;;;;;8.65;4.32;;;;;;;19.87;74.78;101802.72;4995187;28;96830;-35
2022/07/21 07:45:07;;;;;;;8.38;3.90;;;;;;;19.82;75.83;101788.50;4995684;28;99569;-35
2022/07/21 07:47:32;;;;;;;9.23;4.55;;;;;;;19.77;74.53;101788.00;4994721;28;101781;-35
2022/07/21 07:49:58;;;;;;;14.00;4.15;;;;;;;19.86;74.64;101794.63;4996208;28;96498;-35
2022/07/21 07:52:23;;;;;;;12.65;4.28;;;;;;;19.88;74.16;101795.34;4996547;28;96794;-35
2022/07/21 07:54:49;;;;;;;9.95;4.20;;;;;;;19.91;75.26;101798.69;4996134;28;97991;-35
2022/07/21 07:57:14;;;;;;;9.07;3.92;;;;;;;19.92;74.79;101796.81;4996023;28;97694;-35
2022/07/21 07:59:39;;;;;;;8.13;3.58;;;;;;;19.84;75.26;101791.97;4996404;28;96482;-35
2022/07/21 08:02:05;;;;;;;8.07;3.15;;;;;;;19.81;75.65;101792.25;4996515;28;96976;-35
2022/07/21 08:04:31;;;;;;;5.90;3.28;;;;;;;19.81;75.87;101805.13;4995859;28;97358;-35
2022/07/21 08:06:56;;;;;;;5.95;3.30;;;;;;;19.76;74.94;101788.13;4994478;28;100992;-35
2022/07/21 08:09:21;;;;;;;7.00;3.67;;;;;;;19.78;74.73;101788.88;4995739;28;96635;-35
2022/07/21 08:11:47;;;;;;;12.27;3.60;;;;;;;19.81;74.31;101791.38;4996130;28;96816;-35
2022/07/21 08:14:14;;;;;;;8.27;3.88;;;;;;;19.90;74.47;101793.31;4994331;28;101214;-35
2022/07/21 08:16:40;;;;;;;6.25;3.45;;;;;;;19.95;74.92;101796.56;4994303;28;101124;-35
2022/07/21 08:19:05;;;;;;;10.40;3.47;;;;;;;19.95;74.88;101791.06;4996279;28;96690;-35
2022/07/21 08:21:32;;;;;;;9.30;3.60;;;;;;;19.94;75.35;101797.56;4996143;28;96812;-35
2022/07/21 08:23:57;;;;;;;6.50;2.88;;;;;;;19.92;75.56;101791.31;4994268;28;100749;-35
2022/07/21 08:26:24;;;;;;;5.05;3.05;;;;;;;19.88;74.88;101798.97;4994417;28;100995;-35
2022/07/21 08:28:49;;;;;;;7.28;3.38;;;;;;;19.84;75.53;101791.97;4994411;28;96583;-35
2022/07/21 08:31:14;;;;;;;9.90;3.97;;;;;;;19.93;76.06;101795.81;4995737;28;96804;-35
2022/07/21 08:33:40;;;;;;;8.05;3.55;;;;;;;19.94;74.71;101798.44;4995319;28;98005;-35
2022/07/21 08:36:05;;;;;;;7.13;3.60;;;;;;;19.92;75.34;101799.56;4995296;28;99100;-35
2022/07/21 08:38:31;;;;;;;6.00;3.08;;;;;;;19.81;75.74;101802.38;4995513;28;96489;-33
2022/07/21 08:40:58;;;;;;;5.95;2.97;;;;;;;19.85;76.45;101817.59;4995740;28;96902;-35
2022/07/21 08:43:24;;;;;;;4.72;2.75;;;;;;;19.72;76.82;101815.03;4993816;28;100948;-35
2022/07/21 08:45:49;;;;;;;5.53;3.00;;;;;;;19.62;75.96;101806.66;4993906;28;100790;-35
2022/07/21 08:48:19;;;;;;;5.90;2.90;;;;;;;19.74;75.10;101818.53;4995614;28;96640;-35
2022/07/21 08:50:44;;;;;;;3.97;2.63;;;;;;;19.71;76.02;101824.25;4994570;28;96816;-35
2022/07/21 08:53:10;;;;;;;5.38;2.45;;;;;;;19.74;75.81;101824.03;4995303;28;97426;-35
2022/07/21 08:55:39;;;;;;;5.50;2.47;;;;;;;19.66;75.99;101813.66;4994982;28;99757;-34
2022/07/21 08:58:08;;;;;;;8.43;2.85;;;;;;;19.59;76.12;101823.38;4993272;28;96837;-35
2022/07/21 09:00:35;;;;;;;6.32;2.92;;;;;;;19.65;76.07;101830.25;4993972;28;96877;-35
2022/07/21 09:03:33;;;;;;;6.50;2.70;;;;;;;19.56;76.97;101831.91;4993674;28;100957;-35
2022/07/21 09:06:12;;;;;;;4.43;2.58;;;;;;;19.57;76.62;101825.41;4993688;28;98322;-35
2022/07/21 09:08:40;;;;;;;6.20;2.67;;;;;;;19.58;76.16;101829.91;4995182;28;96825;-35
2022/07/21 09:11:19;;;;;;;6.47;2.72;;;;;;;19.55;76.40;101824.69;4993755;28;96587;-35
2022/07/21 09:13:51;;;;;;;4.38;2.47;;;;;;;19.59;75.75;101841.75;4992865;28;100877;-35
2022/07/21 09:16:32;;;;;;;8.15;3.00;;;;;;;19.46;76.22;101839.19;4993775;28;100932;-35
2022/07/21 09:18:58;;;;;;;7.45;2.95;;;;;;;19.48;75.80;101834.44;4994907;28;96705;-35
2022/07/21 09:21:23;;;;;;;5.47;2.60;;;;;;;19.56;75.94;101844.78;4995177;28;96796;-35
2022/07/21 09:23:49;;;;;;;5.75;2.40;;;;;;;19.57;76.34;101847.41;4994525;28;97707;-35
2022/07/21 09:26:15;;;;;;;5.63;2.67;;;;;;;19.57;75.45;101841.00;4995194;28;97258;-35
2022/07/21 09:28:41;;;;;;;4.90;2.30;;;;;;;19.51;75.41;101846.03;4994980;28;96504;-35
2022/07/21 09:31:14;;;;;;;4.22;2.28;;;;;;;19.57;75.68;101847.41;4993563;28;96828;-35
2022/07/21 09:33:44;;;;;;;3.75;2.28;;;;;;;19.63;76.01;101846.00;4993112;28;101121;-35
2022/07/21 09:36:16;;;;;;;5.10;2.58;;;;;;;19.71;74.90;101836.16;4993294;28;100865;-35
2022/07/21 09:38:41;;;;;;;5.00;2.25;;;;;;;19.89;74.64;101852.09;4992787;28;96795;-35
2022/07/21 09:41:15;;;;;;;7.68;2.53;;;;;;;19.93;75.10;101850.84;4993944;28;96724;-35
2022/07/21 09:43:47;;;;;;;5.82;2.22;;;;;;;19.90;75.69;101849.22;4993241;28;100745;-34
2022/07/21 09:46:20;;;;;;;5.03;1.98;;;;;;;19.82;75.40;101859.97;4994165;28;99413;-35
2022/07/21 09:48:47;;;;;;;3.53;1.80;;;;;;;19.68;75.30;101858.38;4992932;28;96650;-35
2022/07/21 09:51:22;;;;;;;6.70;2.55;;;;;;;19.75;75.54;101872.50;4993326;28;96813;-34
2022/07/21 09:54:02;;;;;;;6.22;2.00;;;;;;;19.69;75.27;101868.41;4993079;28;101334;-35
2022/07/21 09:56:31;;;;;;;3.47;2.20;;;;;;;19.66;75.24;101871.38;4994258;28;99169;-35
2022/07/21 09:58:57;;;;;;;4.93;2.55;;;;;;;19.61;75.29;101865.38;4993192;28;97115;-35
2022/07/21 10:01:24;;;;;;;3.95;2.00;;;;;;;19.53;76.10;101862.41;4993203;28;96890;-35
2022/07/21 10:03:50;;;;;;;3.67;1.90;;;;;;;19.48;77.16;101868.28;4992484;28;101188;-35
2022/07/21 10:06:18;;;;;;;4.00;1.88;;;;;;;19.41;76.25;101871.66;4993243;28;100746;-35
2022/07/21 10:08:44;;;;;;;4.72;1.67;;;;;;;19.43;77.11;101888.91;4993294;28;96749;-35
2022/07/21 10:11:10;;;;;;;3.92;1.40;;;;;;;19.38;77.31;101888.38;4992878;28;97001;-35
2022/07/21 10:13:38;;;;;;;3.05;1.55;;;;;;;19.32;77.10;101881.53;4992328;28;101206;-35
2022/07/21 10:16:05;;;;;;;4.95;1.48;;;;;;;19.26;77.15;101893.03;4992782;28;100816;-35
2022/07/21 10:18:39;;;;;;;3.45;1.58;;;;;;;19.28;77.18;101886.44;4994290;28;96488;-35
2022/07/21 10:21:17;;;;;;;2.88;1.33;;;;;;;19.29;78.39;101887.28;4993223;28;96615;-35
2022/07/21 10:23:43;;;;;;;2.60;1.38;;;;;;;19.29;77.19;101888.16;4992573;28;101094;-35
2022/07/21 10:26:10;;;;;;;3.70;1.20;;;;;;;19.35;77.19;101892.25;4993336;28;101642;-35
2022/07/21 10:28:36;;;;;;;2.83;1.55;;;;;;;19.31;76.71;101882.56;4996449;28;96525;-35
2022/07/21 10:31:27;;;;;;;2.72;1.10;;;;;;;19.30;76.95;101878.03;4998243;28;96767;-35
2022/07/21 10:33:54;;;;;;;2.10;1.38;;;;;;;19.36;76.55;101885.78;4997322;28;99671;-35
2022/07/21 10:36:28;;;;;;;2.80;1.58;;;;;;;19.43;77.20;101891.66;4995887;28;100706;-35
2022/07/21 10:39:06;;;;;;;2.25;1.02;;;;;;;19.45;78.12;101887.78;4996790;28;96715;-35
2022/07/21 10:41:59;;;;;;;1.95;0.95;;;;;;;19.42;77.37;101890.75;4997737;28;96679;-35
2022/07/21 10:44:27;;;;;;;4.00;1.48;;;;;;;19.61;77.35;101892.00;4997174;28;99457;-35
2022/07/21 10:47:04;;;;;;;2.50;1.52;;;;;;;19.55;77.92;101887.03;4997281;28;97813;-35
2022/07/21 10:49:43;;;;;;;4.72;1.67;;;;;;;19.56;77.39;101906.13;4996096;28;96693;-35
2022/07/21 10:52:39;;;;;;;5.90;1.77;;;;;;;19.57;77.59;101912.47;4997513;28;96720;-35
2022/07/21 10:55:16;;;;;;;5.38;1.80;;;;;;;19.46;77.54;101903.25;4995524;28;99978;-34
2022/07/21 10:57:47;;;;;;;3.20;1.58;;;;;;;19.49;78.27;101910.38;4995747;28;100853;-35
2022/07/21 11:00:20;;;;;;;4.38;1.83;;;;;;;19.48;77.56;101912.25;4995912;28;96722;-35
2022/07/21 11:02:48;;;;;;;3.70;1.55;;;;;;;19.53;78.20;101899.00;4995746;28;97102;-35
2022/07/21 11:05:13;;;;;;;5.35;1.90;;;;;;;19.50;78.14;101907.50;4994658;28;100849;-35
2022/07/21 11:08:11;;;;;;;4.90;1.60;;;;;;;19.50;78.18;101914.88;4997342;28;97226;-35
2022/07/21 11:10:49;;;;;;;6.00;1.70;;;;;;;19.50;78.05;101910.25;4996912;28;96474;-35
2022/07/21 11:13:19;;;;;;;2.67;1.67;;;;;;;19.50;77.00;101920.38;4997135;28;96652;-35
2022/07/21 11:15:50;;;;;;;4.32;1.88;;;;;;;19.45;77.94;101933.59;4996534;28;98066;-35
2022/07/21 11:18:18;;;;;;;4.05;1.90;;;;;;;19.43;77.36;101920.00;4996581;28;99215;-35
2022/07/21 11:20:44;;;;;;;3.42;1.60;;;;;;;19.46;78.02;101930.72;4996555;28;97533;-34